createdAt,value
2023-03-23T15:58:35.532Z,21.80
2023-03-23T16:01:11.947Z,20.40
2023-03-23T16:03:52.111Z,17.40
2023-03-23T16:06:25.504Z,19.90
2023-03-23T16:08:56.014Z,19.90
2023-03-23T16:11:27.503Z,21.50
2023-03-23T16:13:56.287Z,32.30
2023-03-23T16:16:29.500Z,36.20
2023-03-23T16:19:00.751Z,34.10
2023-03-23T16:21:30.771Z,29.80
2023-03-23T16:23:59.164Z,28.00
2023-03-23T16:26:28.313Z,30.90
2023-03-23T16:29:06.061Z,35.90
2023-03-23T16:31:39.607Z,35.90
2023-03-23T16:34:08.739Z,33.50
2023-03-23T16:36:37.281Z,33.10
2023-03-23T16:39:05.883Z,31.90
2023-03-23T16:41:34.512Z,30.90
2023-03-23T16:44:05.816Z,29.20
2023-03-23T16:46:37.709Z,36.30
2023-03-23T16:49:06.229Z,37.60
2023-03-23T16:51:36.739Z,44.10
2023-03-23T16:54:05.119Z,35.10
2023-03-23T16:56:34.246Z,29.90
2023-03-23T16:59:03.295Z,30.90
2023-03-23T17:01:32.061Z,33.80
2023-03-23T17:04:05.554Z,39.50
2023-03-23T17:06:34.255Z,38.50
2023-03-23T17:09:02.743Z,39.20
2023-03-23T17:11:32.660Z,42.80
2023-03-23T17:14:01.726Z,40.90
2023-03-23T17:16:30.324Z,37.70
2023-03-23T17:19:01.168Z,36.40
2023-03-23T17:21:30.140Z,37.20
2023-03-23T17:24:01.843Z,37.80
2023-03-23T17:26:30.825Z,38.80
2023-03-23T17:28:59.388Z,39.60
2023-03-23T17:31:28.089Z,35.30
2023-03-23T17:33:57.967Z,32.30
2023-03-23T17:36:26.597Z,32.90
2023-03-23T17:38:55.867Z,28.80
2023-03-23T17:41:24.856Z,30.10
2023-03-23T17:43:55.474Z,27.60
2023-03-23T17:46:25.222Z,27.70
2023-03-23T17:48:54.281Z,33.90
2023-03-23T17:51:22.826Z,34.70
2023-03-23T17:53:51.405Z,33.80
2023-03-23T17:56:20.677Z,36.70
2023-03-23T17:58:50.932Z,36.30
2023-03-23T18:01:19.332Z,36.20
2023-03-23T18:03:47.899Z,36.70
2023-03-23T18:06:16.489Z,36.70
2023-03-23T18:08:44.950Z,37.60
2023-03-23T18:11:13.601Z,36.80
2023-03-23T18:13:42.101Z,35.00
2023-03-23T18:16:10.890Z,35.50
2023-03-23T18:18:39.641Z,35.30
2023-03-23T18:21:11.026Z,36.50
2023-03-23T18:23:49.429Z,35.00
2023-03-23T18:26:26.259Z,32.30
2023-03-23T18:28:57.404Z,35.00
2023-03-23T18:34:01.692Z,36.40
2023-03-23T18:36:35.504Z,36.60
2023-03-23T18:39:07.702Z,34.20
2023-03-23T18:41:39.928Z,30.90
2023-03-23T18:44:08.972Z,31.10
2023-03-23T18:46:37.527Z,32.30
2023-03-23T18:49:06.101Z,31.60
2023-03-23T18:51:38.152Z,32.80
2023-03-23T18:54:06.499Z,30.20
2023-03-23T18:56:35.526Z,30.10
2023-03-23T18:59:04.020Z,31.20
2023-03-23T19:01:32.907Z,30.70
2023-03-23T19:04:07.257Z,30.00
2023-03-23T19:06:36.344Z,29.40
2023-03-23T19:09:05.149Z,30.80
2023-03-23T19:11:38.191Z,30.30
2023-03-23T19:14:06.863Z,33.40
2023-03-23T19:16:36.162Z,31.20
2023-03-23T19:19:12.818Z,30.00
2023-03-23T19:21:43.820Z,30.10
2023-03-23T19:24:14.407Z,30.10
2023-03-23T19:26:46.468Z,31.40
2023-03-23T19:29:26.610Z,30.70
2023-03-23T19:32:01.824Z,34.90
2023-03-23T19:34:31.308Z,39.70
2023-03-23T19:37:05.494Z,39.30
2023-03-23T19:39:36.556Z,38.50
2023-03-23T19:42:05.953Z,37.20
2023-03-23T19:44:35.106Z,37.60
2023-03-23T19:47:05.826Z,38.50
2023-03-23T19:49:37.318Z,37.70
2023-03-23T19:52:12.727Z,37.10
2023-03-23T19:54:42.431Z,37.30
2023-03-23T19:57:11.396Z,33.90
2023-03-23T19:59:40.423Z,36.30
2023-03-23T20:02:12.612Z,34.60
2023-03-23T20:04:41.657Z,38.10
2023-03-23T20:07:10.719Z,34.50
2023-03-23T20:09:39.439Z,35.90
2023-03-23T20:12:13.042Z,39.00
2023-03-23T20:14:45.294Z,37.10
2023-03-23T20:17:14.932Z,35.50
2023-03-23T20:19:45.435Z,37.60
2023-03-23T20:22:15.057Z,34.40
2023-03-23T20:24:47.390Z,35.00
2023-03-23T20:27:16.416Z,39.50
2023-03-23T20:29:45.166Z,36.30
2023-03-23T20:32:17.807Z,38.50
2023-03-23T20:34:49.460Z,36.90
2023-03-23T20:37:20.992Z,35.60
2023-03-23T20:42:19.946Z,34.60
2023-03-23T20:44:48.335Z,32.90
2023-03-23T20:47:18.120Z,35.20
2023-03-23T20:49:52.798Z,37.20
2023-03-23T20:52:26.247Z,35.80
2023-03-23T20:54:56.827Z,36.20
2023-03-23T20:57:25.173Z,35.10
2023-03-23T20:59:55.550Z,35.30
2023-03-23T21:02:30.329Z,32.70
2023-03-23T21:05:04.505Z,31.80
2023-03-23T21:07:33.660Z,32.90
2023-03-23T21:10:02.167Z,31.20
2023-03-23T21:15:03.633Z,34.20
2023-03-23T21:17:32.612Z,34.30
2023-03-23T21:20:11.268Z,30.80
2023-03-23T21:22:40.060Z,32.10
2023-03-23T21:25:10.478Z,33.60
2023-03-23T21:27:41.052Z,31.60
2023-03-23T21:30:09.916Z,33.30
2023-03-23T21:32:38.398Z,32.00
2023-03-23T21:35:07.446Z,33.70
2023-03-23T21:37:36.347Z,33.20
2023-03-23T21:40:14.848Z,33.60
2023-03-23T21:42:46.766Z,34.50
2023-03-23T21:45:21.457Z,43.30
2023-03-23T21:47:50.543Z,48.70
2023-03-23T21:50:22.366Z,45.30
2023-03-23T21:52:55.729Z,43.00
2023-03-23T21:55:25.592Z,44.30
2023-03-23T21:57:53.983Z,43.30
2023-03-23T22:00:23.996Z,44.10
2023-03-23T22:02:53.701Z,39.40
2023-03-23T22:05:23.489Z,41.90
2023-03-23T22:07:56.630Z,41.90
2023-03-23T22:10:25.596Z,41.30
2023-03-23T22:12:55.603Z,40.90
2023-03-23T22:15:28.239Z,42.80
2023-03-23T22:17:57.389Z,41.10
2023-03-23T22:20:26.835Z,36.60
2023-03-23T22:22:55.248Z,39.60
2023-03-23T22:25:24.350Z,37.00
2023-03-23T22:27:53.213Z,39.70
2023-03-23T22:30:21.940Z,39.70
2023-03-23T22:32:50.985Z,39.30
2023-03-23T22:35:19.435Z,38.00
2023-03-23T22:37:49.773Z,42.20
2023-03-23T22:40:19.818Z,41.50
2023-03-23T22:42:51.766Z,42.90
2023-03-23T22:45:20.876Z,44.60
2023-03-23T22:47:54.447Z,41.70
2023-03-23T22:50:24.504Z,43.50
2023-03-23T22:52:52.940Z,44.40
2023-03-23T22:55:27.268Z,47.10
2023-03-23T22:57:56.490Z,46.60
2023-03-23T23:00:25.390Z,43.40
2023-03-23T23:02:54.018Z,42.40
2023-03-23T23:05:22.416Z,45.20
2023-03-23T23:07:50.692Z,41.70
2023-03-23T23:10:19.778Z,44.00
2023-03-23T23:12:49.464Z,43.80
2023-03-23T23:15:22.511Z,45.00
2023-03-23T23:17:50.917Z,48.00
2023-03-23T23:20:20.107Z,45.70
2023-03-23T23:22:49.196Z,41.00
2023-03-23T23:25:18.752Z,43.40
2023-03-23T23:27:47.042Z,42.10
2023-03-23T23:30:16.713Z,41.60
2023-03-23T23:32:53.192Z,41.00
2023-03-23T23:35:27.007Z,40.70
2023-03-23T23:37:55.791Z,42.30
2023-03-23T23:40:24.223Z,41.40
2023-03-23T23:42:53.894Z,39.20
2023-03-23T23:45:23.213Z,43.90
2023-03-23T23:48:00.445Z,45.00
2023-03-23T23:50:29.958Z,44.80
2023-03-23T23:52:58.945Z,45.70
2023-03-23T23:55:28.162Z,46.60
2023-03-23T23:57:56.889Z,43.70
